Time;durP1;ratioP1;P1;durP2;ratioP2;P2;SDS_P1;SDS_P2;PMS_P1;PMS_P2;Temp;Humidity;BMP_temperature;BMP_pressure;BME280_temperature;BME280_humidity;BME280_pressure;Samples;Min_cycle;Max_cycle;Signal;HPM_P1;HPM_P2
2023/10/29 00:00:43;;;;;;;;;;;;;;;11.23;100.00;99048.56;5028984;28;1337;-76
2023/10/29 00:03:08;;;;;;;;;;;;;;;11.22;100.00;99047.78;5018461;28;1231;-75
2023/10/29 00:05:33;;;;;;;;;;;;;;;11.25;100.00;99046.63;5030496;28;1247;-76
2023/10/29 00:07:58;;;;;;;;;;;;;;;11.26;100.00;99043.06;5022118;28;1300;-76
2023/10/29 00:10:24;;;;;;;;;;;;;;;11.28;100.00;99035.88;5027230;28;1213;-74
2023/10/29 00:12:49;;;;;;;;;;;;;;;11.28;100.00;99026.31;5010020;28;1484;-75
2023/10/29 00:15:14;;;;;;;;;;;;;;;11.30;100.00;99024.38;5026924;28;1894;-75
2023/10/29 00:17:39;;;;;;;;;;;;;;;11.32;100.00;99021.59;5032533;28;1469;-76
2023/10/29 00:20:07;;;;;;;;;;;;;;;11.32;100.00;99027.59;5030324;28;1162;-75
2023/10/29 00:22:33;;;;;;;;;;;;;;;11.34;100.00;99019.63;5031567;28;1066;-74
2023/10/29 00:24:58;;;;;;;;;;;;;;;11.35;100.00;99019.44;5038855;28;1149;-74
2023/10/29 00:27:23;;;;;;;;;;;;;;;11.37;100.00;99008.91;5037558;28;1081;-76
2023/10/29 00:29:49;;;;;;;;;;;;;;;11.38;100.00;99015.72;5037065;28;1387;-75
2023/10/29 00:32:15;;;;;;;;;;;;;;;11.41;100.00;98991.97;5040887;28;1072;-75
2023/10/29 00:34:40;;;;;;;;;;;;;;;11.41;100.00;98984.19;5034496;28;1889;-76
2023/10/29 00:37:06;;;;;;;;;;;;;;;11.43;100.00;98987.44;5030317;28;1528;-75
2023/10/29 00:39:31;;;;;;;;;;;;;;;11.46;100.00;98986.25;5031330;28;1340;-75
2023/10/29 00:41:57;;;;;;;;;;;;;;;11.47;100.00;98987.88;5024406;28;1304;-77
2023/10/29 00:44:22;;;;;;;;;;;;;;;11.49;100.00;98972.94;5006922;28;1328;-75
2023/10/29 00:46:48;;;;;;;;;;;;;;;11.50;100.00;98990.94;5025634;28;1264;-76
2023/10/29 00:49:13;;;;;;;;;;;;;;;11.51;100.00;98995.16;5023228;28;1170;-75
2023/10/29 00:51:38;;;;;;;;;;;;;;;11.54;100.00;98981.03;5027957;28;1183;-75
2023/10/29 00:54:04;;;;;;;;;;;;;;;11.56;100.00;98969.47;5027482;28;1970;-75
2023/10/29 00:56:29;;;;;;;;;;;;;;;11.56;100.00;98966.88;5005480;28;1277;-76
2023/10/29 00:58:55;;;;;;;;;;;;;;;11.57;100.00;98958.09;5025232;28;1261;-75
2023/10/29 01:01:20;;;;;;;;;;;;;;;11.57;100.00;98952.91;5027988;28;1174;-75
2023/10/29 01:03:46;;;;;;;;;;;;;;;11.58;100.00;98959.69;5017326;28;2991;-76
2023/10/29 01:06:11;;;;;;;;;;;;;;;11.59;100.00;98956.13;5020291;28;2042;-75
2023/10/29 01:08:37;;;;;;;;;;;;;;;11.60;100.00;98947.34;5021094;28;3021;-76
2023/10/29 01:11:06;;;;;;;;;;;;;;;11.59;100.00;98958.75;4997907;28;1976;-77
2023/10/29 01:13:32;;;;;;;;;;;;;;;11.60;100.00;98942.16;5013228;28;1999;-77
2023/10/29 01:15:57;;;;;;;;;;;;;;;11.62;100.00;98931.59;5012773;28;1891;-76
2023/10/29 01:18:23;;;;;;;;;;;;;;;11.64;100.00;98937.41;5015363;28;2335;-75
2023/10/29 01:20:48;;;;;;;;;;;;;;;11.67;100.00;98934.47;5016560;28;1980;-76
2023/10/29 01:23:13;;;;;;;;;;;;;;;11.68;100.00;98934.28;5024194;28;1107;-75
2023/10/29 01:25:38;;;;;;;;;;;;;;;11.68;100.00;98923.09;5028687;28;1171;-75
2023/10/29 01:28:04;;;;;;;;;;;;;;;11.69;100.00;98919.50;5021486;28;1262;-74
2023/10/29 01:30:30;;;;;;;;;;;;;;;11.68;100.00;98913.50;5032444;28;1028;-75
2023/10/29 01:32:55;;;;;;;;;;;;;;;11.70;100.00;98906.38;5033670;28;1224;-76
2023/10/29 01:35:20;;;;;;;;;;;;;;;11.73;100.00;98899.19;5030670;28;1955;-75
2023/10/29 01:37:45;;;;;;;;;;;;;;;11.74;100.00;98913.78;5032364;28;1234;-76
2023/10/29 01:40:11;;;;;;;;;;;;;;;11.74;100.00;98916.38;5009501;28;1248;-75
2023/10/29 01:42:36;;;;;;;;;;;;;;;11.76;100.00;98904.03;5026253;28;1201;-75
2023/10/29 01:45:03;;;;;;;;;;;;;;;11.77;100.00;98916.03;5024551;28;1205;-76
2023/10/29 01:47:29;;;;;;;;;;;;;;;11.80;100.00;98915.66;5028710;28;1178;-75
2023/10/29 01:49:54;;;;;;;;;;;;;;;11.83;100.00;98917.94;5008175;28;1391;-75
2023/10/29 01:52:19;;;;;;;;;;;;;;;11.84;100.00;98911.75;5018180;28;1041;-75
2023/10/29 01:54:44;;;;;;;;;;;;;;;11.85;100.00;98919.34;5029998;28;1898;-75
2023/10/29 01:57:10;;;;;;;;;;;;;;;11.85;100.00;98903.78;5007051;28;2349;-76
2023/10/29 01:59:35;;;;;;;;;;;;;;;11.87;100.00;98890.59;5017461;28;2195;-77
2023/10/29 02:02:00;;;;;;;;;;;;;;;11.89;100.00;98899.03;5023184;28;1233;-75
2023/10/29 02:04:26;;;;;;;;;;;;;;;11.94;100.00;98891.50;5026882;28;1249;-76
2023/10/29 02:06:55;;;;;;;;;;;;;;;12.01;100.00;98901.97;5027416;28;1539;-75
2023/10/29 02:09:20;;;;;;;;;;;;;;;12.03;100.00;98903.38;5020950;28;1871;-75
2023/10/29 02:11:45;;;;;;;;;;;;;;;12.05;100.00;98904.03;5021416;28;1305;-75
2023/10/29 02:14:10;;;;;;;;;;;;;;;12.08;100.00;98908.06;5025388;28;1973;-76
2023/10/29 02:16:35;;;;;;;;;;;;;;;12.08;100.00;98908.84;5007161;28;1270;-76
2023/10/29 02:19:01;;;;;;;;;;;;;;;12.08;100.00;98906.25;5012136;28;1414;-75
2023/10/29 02:21:26;;;;;;;;;;;;;;;12.08;100.00;98897.66;5029935;28;1035;-75
2023/10/29 02:23:52;;;;;;;;;;;;;;;12.08;100.00;98898.47;5028852;28;1294;-75
2023/10/29 02:26:18;;;;;;;;;;;;;;;12.08;100.00;98903.66;5021998;28;1170;-76
2023/10/29 02:28:43;;;;;;;;;;;;;;;12.09;100.00;98910.47;5026780;28;1193;-75
2023/10/29 02:31:14;;;;;;;;;;;;;;;12.11;100.00;98898.09;5024432;28;1331;-74
2023/10/29 02:33:40;;;;;;;;;;;;;;;12.12;100.00;98894.53;5021042;28;1959;-76
2023/10/29 02:36:06;;;;;;;;;;;;;;;12.12;100.00;98889.31;5025916;28;1386;-75
2023/10/29 02:38:31;;;;;;;;;;;;;;;12.12;100.00;98888.53;5023391;28;1660;-76
2023/10/29 02:40:56;;;;;;;;;;;;;;;12.09;100.00;98883.66;5026014;28;1224;-75
2023/10/29 02:43:22;;;;;;;;;;;;;;;12.06;100.00;98884.84;5027952;28;1277;-76
2023/10/29 02:45:47;;;;;;;;;;;;;;;12.03;100.00;98876.59;5025012;28;1531;-75
2023/10/29 02:48:12;;;;;;;;;;;;;;;12.01;100.00;98892.38;5023325;28;1538;-75
2023/10/29 02:50:38;;;;;;;;;;;;;;;11.99;100.00;98889.19;5004725;28;1227;-75
2023/10/29 02:53:03;;;;;;;;;;;;;;;11.99;100.00;98883.97;5018290;28;1898;-79
2023/10/29 02:55:28;;;;;;;;;;;;;;;11.99;100.00;98883.97;5023983;28;1228;-76
2023/10/29 02:57:53;;;;;;;;;;;;;;;11.99;100.00;98878.78;5023484;28;1328;-75
2023/10/29 03:00:18;;;;;;;;;;;;;;;12.00;100.00;98877.78;5019744;28;1222;-75
2023/10/29 03:02:44;;;;;;;;;;;;;;;12.00;100.00;98875.19;5028190;28;1265;-76
2023/10/29 03:05:10;;;;;;;;;;;;;;;12.02;100.00;98882.78;5025174;28;1224;-76
2023/10/29 03:07:35;;;;;;;;;;;;;;;12.02;100.00;98873.22;5027827;28;1604;-75
2023/10/29 03:10:00;;;;;;;;;;;;;;;12.04;100.00;98881.63;5026464;28;1115;-75
2023/10/29 03:12:25;;;;;;;;;;;;;;;12.06;100.00;98874.47;5029426;28;1164;-74
2023/10/29 03:14:51;;;;;;;;;;;;;;;12.10;100.00;98870.53;5028588;28;1906;-75
2023/10/29 03:17:16;;;;;;;;;;;;;;;12.09;100.00;98884.47;5029985;28;1207;-75
2023/10/29 03:19:41;;;;;;;;;;;;;;;12.10;100.00;98885.28;5027177;28;1249;-74
2023/10/29 03:22:06;;;;;;;;;;;;;;;12.09;100.00;98884.47;5008176;28;1474;-75
2023/10/29 03:24:32;;;;;;;;;;;;;;;12.10;100.00;98880.91;5018262;28;1281;-76
2023/10/29 03:26:57;;;;;;;;;;;;;;;12.07;100.00;98886.47;5022676;28;1247;-75
2023/10/29 03:29:22;;;;;;;;;;;;;;;12.10;100.00;98896.50;5024518;28;1366;-74
2023/10/29 03:31:47;;;;;;;;;;;;;;;12.09;100.00;98887.06;5022977;28;1205;-75
2023/10/29 03:34:13;;;;;;;;;;;;;;;12.09;100.00;98894.88;5022211;28;1951;-75
2023/10/29 03:36:38;;;;;;;;;;;;;;;12.10;100.00;98886.09;5022184;28;1208;-75
2023/10/29 03:39:03;;;;;;;;;;;;;;;12.12;100.00;98899.72;5025886;28;1154;-74
2023/10/29 03:41:28;;;;;;;;;;;;;;;12.14;100.00;98902.94;5024966;28;1216;-74
2023/10/29 03:43:53;;;;;;;;;;;;;;;12.14;100.00;98897.72;5020380;28;1281;-74
2023/10/29 03:46:19;;;;;;;;;;;;;;;12.13;100.00;98885.72;5028686;28;1247;-75
2023/10/29 03:48:47;;;;;;;;;;;;;;;12.17;100.00;98876.59;5006803;28;1368;-75
2023/10/29 03:51:12;;;;;;;;;;;;;;;12.16;100.00;98872.38;5028436;28;1194;-76
2023/10/29 03:53:38;;;;;;;;;;;;;;;12.16;100.00;98869.78;5003817;28;1910;-74
2023/10/29 03:56:03;;;;;;;;;;;;;;;12.17;100.00;98855.81;5014536;28;1520;-75
2023/10/29 03:58:28;;;;;;;;;;;;;;;12.16;100.00;98864.59;5021191;28;1213;-75
2023/10/29 04:00:53;;;;;;;;;;;;;;;12.17;100.00;98870.59;5022385;28;1352;-75
2023/10/29 04:03:18;;;;;;;;;;;;;;;12.18;100.00;98877.38;5003526;28;1172;-75
2023/10/29 04:05:44;;;;;;;;;;;;;;;12.17;100.00;98876.59;5022990;28;1225;-75
2023/10/29 04:08:09;;;;;;;;;;;;;;;12.15;100.00;98888.94;5023197;28;1439;-75
2023/10/29 04:10:34;;;;;;;;;;;;;;;12.16;100.00;98889.78;5021292;28;1342;-75
2023/10/29 04:12:59;;;;;;;;;;;;;;;12.17;100.00;98892.19;5025704;28;1181;-74
2023/10/29 04:15:24;;;;;;;;;;;;;;;12.16;100.00;98906.16;5007295;28;1894;-75
2023/10/29 04:17:50;;;;;;;;;;;;;;;12.19;100.00;98913.59;5008117;28;1473;-74
2023/10/29 04:20:15;;;;;;;;;;;;;;;12.20;100.00;98920.38;5028523;28;1217;-75
2023/10/29 04:22:41;;;;;;;;;;;;;;;12.20;100.00;98912.59;5029579;28;1205;-75
2023/10/29 04:25:06;;;;;;;;;;;;;;;12.21;100.00;98908.19;5021797;28;1190;-76
2023/10/29 04:27:31;;;;;;;;;;;;;;;12.20;100.00;98928.19;5024233;28;1182;-75
2023/10/29 04:29:56;;;;;;;;;;;;;;;12.19;100.00;98929.19;5013887;28;1204;-75
2023/10/29 04:32:22;;;;;;;;;;;;;;;12.19;100.00;98923.97;5024857;28;1342;-77
2023/10/29 04:34:47;;;;;;;;;;;;;;;12.20;100.00;98928.19;5008660;28;1898;-75
2023/10/29 04:37:12;;;;;;;;;;;;;;;12.21;100.00;98937.63;5029881;28;1250;-77
2023/10/29 04:39:38;;;;;;;;;;;;;;;12.22;100.00;98928.84;5028326;28;1202;-75
2023/10/29 04:42:05;;;;;;;;;;;;;;;12.22;100.00;98933.22;5029911;28;1212;-76
2023/10/29 04:44:30;;;;;;;;;;;;;;;12.45;100.00;98920.09;5012864;28;1533;-75
2023/10/29 04:46:55;;;;;;;;;;;;;;;12.17;100.00;98931.16;5025826;28;1378;-75
2023/10/29 04:49:21;;;;;;;;;;;;;;;12.07;100.00;98928.03;5029224;28;1493;-75
2023/10/29 04:51:46;;;;;;;;;;;;;;;12.01;100.00;98933.97;5009001;28;1298;-75
2023/10/29 04:54:11;;;;;;;;;;;;;;;11.93;100.00;98937.47;5018966;28;1964;-76
2023/10/29 04:56:37;;;;;;;;;;;;;;;11.92;100.00;98950.63;5029165;28;1187;-76
2023/10/29 04:59:02;;;;;;;;;;;;;;;11.90;100.00;98943.00;5027697;28;1330;-76
2023/10/29 05:01:27;;;;;;;;;;;;;;;11.86;100.00;98941.75;5029299;28;1174;-76
2023/10/29 05:03:52;;;;;;;;;;;;;;;11.74;100.00;98942.34;5033047;28;1231;-75
2023/10/29 05:06:18;;;;;;;;;;;;;;;11.65;100.00;98934.66;5023407;28;1421;-76
2023/10/29 05:08:43;;;;;;;;;;;;;;;11.60;100.00;98936.97;5028166;28;1245;-75
2023/10/29 05:11:09;;;;;;;;;;;;;;;11.53;100.00;98930.88;5011397;28;1374;-76
2023/10/29 05:13:34;;;;;;;;;;;;;;;11.48;100.00;98948.78;5030718;28;1894;-76
2023/10/29 05:16:00;;;;;;;;;;;;;;;11.43;100.00;98941.53;5025354;28;1210;-75
2023/10/29 05:18:25;;;;;;;;;;;;;;;11.40;100.00;98946.25;5033755;28;1246;-75
2023/10/29 05:20:50;;;;;;;;;;;;;;;11.39;100.00;98947.22;5007730;28;1325;-76
2023/10/29 05:23:15;;;;;;;;;;;;;;;11.39;100.00;98945.44;5025044;28;1451;-76
2023/10/29 05:25:41;;;;;;;;;;;;;;;11.40;100.00;98948.84;5026234;28;1085;-76
2023/10/29 05:28:06;;;;;;;;;;;;;;;11.40;100.00;98946.25;5027264;28;1250;-76
2023/10/29 05:30:31;;;;;;;;;;;;;;;11.43;100.00;98940.72;5026356;28;1194;-75
2023/10/29 05:32:57;;;;;;;;;;;;;;;11.47;100.00;98946.34;5027039;28;1073;-76
2023/10/29 05:35:22;;;;;;;;;;;;;;;11.49;100.00;98942.59;5019666;28;1886;-75
2023/10/29 05:37:47;;;;;;;;;;;;;;;11.53;100.00;98936.09;5020816;28;1685;-76
2023/10/29 05:40:13;;;;;;;;;;;;;;;11.58;100.00;98938.91;5017516;28;1211;-76
2023/10/29 05:42:38;;;;;;;;;;;;;;;11.59;100.00;98937.97;5008551;28;1388;-75
2023/10/29 05:45:06;;;;;;;;;;;;;;;11.60;100.00;98947.34;5025649;28;1361;-76
2023/10/29 05:47:31;;;;;;;;;;;;;;;11.61;100.00;98938.59;5027641;28;1038;-76
2023/10/29 05:49:56;;;;;;;;;;;;;;;11.58;100.00;98946.72;5029049;28;1338;-76
2023/10/29 05:52:22;;;;;;;;;;;;;;;11.59;100.00;98971.72;5025897;28;1214;-76
2023/10/29 05:54:47;;;;;;;;;;;;;;;11.55;100.00;98991.22;5008197;28;1902;-75
2023/10/29 05:57:12;;;;;;;;;;;;;;;11.50;100.00;98983.16;5027200;28;1027;-76
2023/10/29 05:59:38;;;;;;;;;;;;;;;11.53;100.00;98998.38;5032769;28;1547;-76
2023/10/29 06:02:03;;;;;;;;;;;;;;;11.51;100.00;98987.34;5028060;28;1205;-75
2023/10/29 06:04:28;;;;;;;;;;;;;;;11.47;100.00;98983.53;5030727;28;1446;-76
2023/10/29 06:06:53;;;;;;;;;;;;;;;11.43;100.00;99003.00;5027846;28;1258;-76
2023/10/29 06:09:19;;;;;;;;;;;;;;;11.39;100.00;99007.75;5026949;28;1505;-76
2023/10/29 06:11:44;;;;;;;;;;;;;;;11.38;100.00;99013.13;5030011;28;1214;-75
2023/10/29 06:14:09;;;;;;;;;;;;;;;11.37;100.00;99009.72;5025321;28;1961;-75
2023/10/29 06:16:35;;;;;;;;;;;;;;;11.32;100.00;99021.59;5031161;28;1403;-75
2023/10/29 06:19:02;;;;;;;;;;;;;;;11.35;100.00;99035.00;5031250;28;1015;-75
2023/10/29 06:21:27;;;;;;;;;;;;;;;11.32;100.00;99026.78;5033834;28;1208;-76
2023/10/29 06:23:52;;;;;;;;;;;;;;;11.28;100.00;99041.09;5021142;28;1236;-75
2023/10/29 06:26:18;;;;;;;;;;;;;;;11.29;100.00;99042.69;5027115;28;1192;-76
2023/10/29 06:28:43;;;;;;;;;;;;;;;11.26;100.00;99049.06;5025020;28;1087;-76
2023/10/29 06:31:08;;;;;;;;;;;;;;;11.28;100.00;99056.66;5028119;28;1087;-75
2023/10/29 06:33:35;;;;;;;;;;;;;;;11.26;100.00;99053.44;5020499;28;1975;-76
2023/10/29 06:36:01;;;;;;;;;;;;;;;11.29;100.00;99068.66;5020613;28;1217;-75
2023/10/29 06:38:26;;;;;;;;;;;;;;;11.34;100.00;99066.34;5024474;28;1143;-75
2023/10/29 06:40:51;;;;;;;;;;;;;;;11.29;100.00;99064.25;5013816;28;1096;-75
2023/10/29 06:43:17;;;;;;;;;;;;;;;11.36;100.00;99065.22;5023954;28;984;-76
2023/10/29 06:45:42;;;;;;;;;;;;;;;11.24;100.00;99071.78;5018793;28;1142;-75
2023/10/29 06:48:07;;;;;;;;;;;;;;;11.23;100.00;99079.72;5005510;28;1203;-75
2023/10/29 06:50:32;;;;;;;;;;;;;;;11.25;100.00;99082.97;5024562;28;1054;-76
2023/10/29 06:52:58;;;;;;;;;;;;;;;11.25;100.00;99083.78;5023439;28;1025;-76
2023/10/29 06:55:23;;;;;;;;;;;;;;;11.26;100.00;99084.56;5023262;28;1965;-76
2023/10/29 06:57:49;;;;;;;;;;;;;;;11.34;100.00;99092.28;5026599;28;1421;-77
2023/10/29 07:00:15;;;;;;;;;;;;;;;11.27;100.00;99091.38;5008924;28;1579;-75
2023/10/29 07:02:40;;;;;;;;;;;;;;;11.25;100.00;99093.34;5023583;28;1536;-75
2023/10/29 07:05:06;;;;;;;;;;;;;;;11.26;100.00;99094.97;5022618;28;1226;-75
2023/10/29 07:07:31;;;;;;;;;;;;;;;11.22;100.00;99099.66;5025064;28;1277;-75
2023/10/29 07:09:56;;;;;;;;;;;;;;;11.23;100.00;99113.44;5022286;28;1198;-75
2023/10/29 07:12:22;;;;;;;;;;;;;;;11.23;100.00;99116.03;5005994;28;1354;-75
2023/10/29 07:14:47;;;;;;;;;;;;;;;11.22;100.00;99119.63;5020483;28;1890;-75
2023/10/29 07:17:12;;;;;;;;;;;;;;;11.23;100.00;99132.41;5022907;28;1377;-76
2023/10/29 07:19:38;;;;;;;;;;;;;;;11.25;100.00;99130.47;5023075;28;1278;-77
2023/10/29 07:22:03;;;;;;;;;;;;;;;11.23;100.00;99116.84;5024021;28;1254;-75
2023/10/29 07:24:28;;;;;;;;;;;;;;;11.24;100.00;99128.88;5015483;28;1205;-75
2023/10/29 07:26:54;;;;;;;;;;;;;;;11.24;100.00;99121.09;5019744;28;1156;-77
2023/10/29 07:29:19;;;;;;;;;;;;;;;11.25;100.00;99129.69;5021629;28;1214;-75
2023/10/29 07:31:44;;;;;;;;;;;;;;;11.27;100.00;99132.91;5023616;28;1248;-75
2023/10/29 07:34:09;;;;;;;;;;;;;;;11.29;100.00;99141.31;5021552;28;1949;-75
2023/10/29 07:36:35;;;;;;;;;;;;;;;11.28;100.00;99139.69;5020495;28;1342;-75
2023/10/29 07:39:00;;;;;;;;;;;;;;;11.35;100.00;99136.25;5022222;28;1307;-75
2023/10/29 07:41:25;;;;;;;;;;;;;;;11.35;100.00;99151.00;5023284;28;1154;-76
2023/10/29 07:43:50;;;;;;;;;;;;;;;11.36;100.00;99155.25;5018759;28;1724;-76
2023/10/29 07:46:16;;;;;;;;;;;;;;;11.36;100.00;99153.47;5019000;28;1183;-75
2023/10/29 07:48:41;;;;;;;;;;;;;;;11.45;100.00;99167.19;5020396;28;1480;-75
2023/10/29 07:51:08;;;;;;;;;;;;;;;11.44;100.00;99179.34;5018547;28;1146;-76
2023/10/29 07:53:33;;;;;;;;;;;;;;;11.42;100.00;99177.94;5019456;28;1938;-76
2023/10/29 07:56:11;;;;;;;;;;;;;;;11.43;100.00;99179.53;5010505;28;1252;-75
2023/10/29 07:58:36;;;;;;;;;;;;;;;11.44;100.00;99181.16;5023529;28;1130;-74
2023/10/29 08:01:02;;;;;;;;;;;;;;;11.51;100.00;99183.88;5028682;28;1210;-75
2023/10/29 08:03:27;;;;;;;;;;;;;;;11.49;100.00;99186.63;5025886;28;1236;-75
2023/10/29 08:05:52;;;;;;;;;;;;;;;11.50;100.00;99180.47;5008684;28;1329;-76
2023/10/29 08:08:18;;;;;;;;;;;;;;;11.58;100.00;99177.81;5024013;28;1107;-76
2023/10/29 08:10:44;;;;;;;;;;;;;;;11.55;100.00;99182.56;5008249;28;1363;-74
2023/10/29 08:13:10;;;;;;;;;;;;;;;11.56;100.00;99195.34;5020475;28;1254;-75
2023/10/29 08:15:36;;;;;;;;;;;;;;;11.58;100.00;99198.56;5020961;28;1958;-76
2023/10/29 08:18:01;;;;;;;;;;;;;;;11.62;100.00;99210.25;5019618;28;1176;-75
2023/10/29 08:20:26;;;;;;;;;;;;;;;11.65;100.00;99225.50;5019380;28;1014;-75
2023/10/29 08:22:52;;;;;;;;;;;;;;;11.72;100.00;99223.03;5018898;28;1389;-75
2023/10/29 08:25:17;;;;;;;;;;;;;;;11.77;100.00;99227.72;5017592;28;1184;-74
2023/10/29 08:27:42;;;;;;;;;;;;;;;11.89;100.00;99242.75;5023697;28;1159;-75
2023/10/29 08:30:08;;;;;;;;;;;;;;;11.94;100.00;99239.63;5020284;28;1349;-75
2023/10/29 08:32:34;;;;;;;;;;;;;;;11.94;100.00;99230.06;5018342;28;966;-75
2023/10/29 08:34:59;;;;;;;;;;;;;;;11.99;100.00;99234.75;5017098;28;1967;-75
2023/10/29 08:37:25;;;;;;;;;;;;;;;12.00;100.00;99238.94;5024761;28;1377;-76
2023/10/29 08:39:50;;;;;;;;;;;;;;;12.03;100.00;99246.38;5024404;28;1041;-76
2023/10/29 08:42:15;;;;;;;;;;;;;;;12.05;100.00;99256.63;5007056;28;1439;-75
2023/10/29 08:44:41;;;;;;;;;;;;;;;12.02;100.00;99246.56;5015300;28;1390;-74
2023/10/29 08:47:06;;;;;;;;;;;;;;;12.06;100.00;99248.66;5025932;28;1175;-75
2023/10/29 08:49:31;;;;;;;;;;;;;;;12.12;100.00;99242.75;5008230;28;1211;-77
2023/10/29 08:51:56;;;;;;;;;;;;;;;12.15;100.00;99237.19;5023947;28;1263;-75
2023/10/29 08:54:23;;;;;;;;;;;;;;;12.19;100.00;99248.88;5025017;28;1930;-74
2023/10/29 08:56:48;;;;;;;;;;;;;;;12.23;100.00;99265.75;5019211;28;1182;-74
2023/10/29 08:59:14;;;;;;;;;;;;;;;12.33;100.00;99275.91;5025198;28;1133;-74
2023/10/29 09:01:39;;;;;;;;;;;;;;;12.41;100.00;99282.84;5025197;28;1194;-74
2023/10/29 09:04:04;;;;;;;;;;;;;;;12.45;100.00;99284.09;5026163;28;1177;-77
2023/10/29 09:06:29;;;;;;;;;;;;;;;12.51;100.00;99293.00;5024615;28;1337;-74
2023/10/29 09:08:54;;;;;;;;;;;;;;;12.56;100.00;99301.91;5026382;28;1657;-75
2023/10/29 09:11:20;;;;;;;;;;;;;;;12.64;97.91;99304.41;5009569;28;1332;-76
2023/10/29 09:13:45;;;;;;;;;;;;;;;12.59;98.48;99298.94;5024068;28;1988;-74
2023/10/29 09:16:10;;;;;;;;;;;;;;;12.60;97.85;99308.34;5002424;28;1282;-78
2023/10/29 09:18:36;;;;;;;;;;;;;;;12.60;97.61;99315.34;5021987;28;1441;-76
2023/10/29 09:21:01;;;;;;;;;;;;;;;12.80;92.87;99323.47;5021576;28;1107;-75
2023/10/29 09:23:27;;;;;;;;;;;;;;;12.61;95.50;99324.75;5009573;28;1437;-74
2023/10/29 09:25:53;;;;;;;;;;;;;;;12.59;95.43;99324.94;5020827;28;1324;-75
2023/10/29 09:28:20;;;;;;;;;;;;;;;12.60;95.07;99323.94;5007438;28;1369;-74
2023/10/29 09:30:46;;;;;;;;;;;;;;;12.64;96.47;99335.63;5021145;28;1052;-76
2023/10/29 09:33:12;;;;;;;;;;;;;;;12.86;91.82;99338.38;5011541;28;1497;-74
2023/10/29 09:35:38;;;;;;;;;;;;;;;12.81;92.47;99325.09;5019727;28;1886;-74
2023/10/29 09:38:03;;;;;;;;;;;;;;;12.80;93.57;99333.88;5024202;28;1259;-74
2023/10/29 09:40:28;;;;;;;;;;;;;;;12.81;92.76;99345.91;5024734;28;1349;-74
2023/10/29 09:42:55;;;;;;;;;;;;;;;12.74;92.17;99336.22;5008599;28;1261;-75
2023/10/29 09:45:25;;;;;;;;;;;;;;;12.74;91.03;99336.22;5007186;28;1269;-74
2023/10/29 09:47:52;;;;;;;;;;;;;;;12.69;93.00;99338.53;5006586;28;1222;-75
2023/10/29 09:50:18;;;;;;;;;;;;;;;12.65;92.92;99326.84;5025466;28;1122;-76
2023/10/29 09:52:45;;;;;;;;;;;;;;;12.66;92.71;99338.84;5003056;28;1290;-73
2023/10/29 09:55:10;;;;;;;;;;;;;;;12.75;92.62;99358.63;5007583;28;1898;-75
2023/10/29 09:57:36;;;;;;;;;;;;;;;12.77;92.75;99351.44;5023389;28;1181;-74
2023/10/29 10:00:02;;;;;;;;;;;;;;;12.87;91.61;99340.81;5026468;28;1064;-74
2023/10/29 10:02:27;;;;;;;;;;;;;;;12.94;90.75;99335.69;5020518;28;1226;-74
2023/10/29 10:04:53;;;;;;;;;;;;;;;12.94;90.17;99340.91;5021746;28;1204;-76
2023/10/29 10:07:19;;;;;;;;;;;;;;;12.90;90.47;99350.03;5018784;28;1614;-77
2023/10/29 10:09:52;;;;;;;;;;;;;;;12.92;90.06;99337.69;5007736;28;1187;-74
2023/10/29 10:12:17;;;;;;;;;;;;;;;12.87;90.61;99329.59;5022479;28;1160;-75
2023/10/29 10:14:43;;;;;;;;;;;;;;;12.86;90.26;99322.78;5024364;28;1955;-74
2023/10/29 10:17:08;;;;;;;;;;;;;;;12.84;89.99;99309.13;5023645;28;1273;-74
2023/10/29 10:19:34;;;;;;;;;;;;;;;12.80;89.81;99310.47;5021999;28;1516;-74
2023/10/29 10:21:59;;;;;;;;;;;;;;;12.76;89.30;99313.41;5023623;28;1039;-76
2023/10/29 10:24:35;;;;;;;;;;;;;;;12.75;89.27;99295.38;5021962;28;1362;-75
2023/10/29 10:27:00;;;;;;;;;;;;;;;12.72;90.24;99306.13;5018739;28;1448;-74
2023/10/29 10:29:31;;;;;;;;;;;;;;;12.72;89.72;99295.72;5002172;28;1299;-75
2023/10/29 10:32:02;;;;;;;;;;;;;;;12.69;89.29;99307.31;5011790;28;1416;-76
2023/10/29 10:34:27;;;;;;;;;;;;;;;12.70;89.28;99319.31;5019431;28;1959;-76
2023/10/29 10:36:57;;;;;;;;;;;;;;;12.65;88.76;99321.63;5023306;28;1220;-74
2023/10/29 10:39:23;;;;;;;;;;;;;;;12.64;90.06;99325.22;5025066;28;1261;-74
2023/10/29 10:41:49;;;;;;;;;;;;;;;12.63;90.51;99334.03;5025207;28;1097;-74
2023/10/29 10:44:15;;;;;;;;;;;;;;;12.65;90.46;99345.03;5008934;28;1317;-75
2023/10/29 10:46:46;;;;;;;;;;;;;;;12.70;90.34;99349.72;5019673;28;1381;-75
2023/10/29 10:49:11;;;;;;;;;;;;;;;12.68;90.34;99347.31;5020675;28;1025;-75
2023/10/29 10:51:37;;;;;;;;;;;;;;;12.68;90.73;99347.31;5020215;28;1239;-74
2023/10/29 10:54:04;;;;;;;;;;;;;;;12.70;91.10;99354.94;5024571;28;1965;-74
2023/10/29 10:56:35;;;;;;;;;;;;;;;12.74;90.65;99364.81;5020579;28;1354;-74
2023/10/29 10:59:01;;;;;;;;;;;;;;;12.76;90.98;99370.66;5021372;28;1200;-76
2023/10/29 11:01:27;;;;;;;;;;;;;;;12.77;89.28;99381.88;5019525;28;1092;-75
2023/10/29 11:03:54;;;;;;;;;;;;;;;12.77;90.12;99372.25;5021471;28;1172;-74
2023/10/29 11:06:21;;;;;;;;;;;;;;;12.77;89.85;99350.66;5020703;28;989;-75
2023/10/29 11:08:46;;;;;;;;;;;;;;;12.70;90.21;99340.13;5018045;28;1161;-74
2023/10/29 11:11:12;;;;;;;;;;;;;;;12.75;90.24;99348.22;5003308;28;1287;-75
2023/10/29 11:13:37;;;;;;;;;;;;;;;12.74;89.91;99335.41;5023387;28;1902;-74
2023/10/29 11:16:06;;;;;;;;;;;;;;;12.72;90.16;99322.53;5003158;28;1072;-74
2023/10/29 11:18:31;;;;;;;;;;;;;;;12.73;89.63;99328.56;5022161;28;1338;-75
2023/10/29 11:20:59;;;;;;;;;;;;;;;12.70;89.75;99318.50;5021942;28;1151;-74
2023/10/29 11:23:29;;;;;;;;;;;;;;;12.69;89.00;99322.09;5000548;28;1213;-74
2023/10/29 11:26:13;;;;;;;;;;;;;;;12.68;89.65;99331.72;5021335;28;1150;-75
2023/10/29 11:28:42;;;;;;;;;;;;;;;12.69;89.24;99340.31;5018465;28;1198;-76
2023/10/29 11:31:23;;;;;;;;;;;;;;;12.68;89.15;99344.72;5026850;28;1190;-75
2023/10/29 11:33:54;;;;;;;;;;;;;;;12.65;89.74;99342.44;5023765;28;1890;-76
2023/10/29 11:36:29;;;;;;;;;;;;;;;12.65;89.71;99321.63;5029221;28;1212;-74
2023/10/29 11:39:15;;;;;;;;;;;;;;;12.64;89.41;99325.22;5021573;28;1221;-74
2023/10/29 11:41:40;;;;;;;;;;;;;;;12.64;90.32;99320.03;5011881;28;1424;-74
2023/10/29 11:44:18;;;;;;;;;;;;;;;12.64;90.48;99304.41;5023149;28;1244;-75
2023/10/29 11:47:03;;;;;;;;;;;;;;;12.67;89.90;99309.28;5023012;28;1331;-75
2023/10/29 11:49:30;;;;;;;;;;;;;;;12.66;90.29;99297.25;5025304;28;1239;-75
2023/10/29 11:51:59;;;;;;;;;;;;;;;12.66;90.48;99281.63;5026010;28;1081;-76
2023/10/29 11:54:24;;;;;;;;;;;;;;;12.70;90.45;99267.28;5025321;28;1965;-75
2023/10/29 11:56:50;;;;;;;;;;;;;;;12.74;90.95;99271.16;5023548;28;1282;-76
2023/10/29 11:59:15;;;;;;;;;;;;;;;12.84;90.38;99267.47;5007857;28;1195;-76
2023/10/29 12:01:44;;;;;;;;;;;;;;;12.95;90.70;99254.03;5023505;28;1202;-75
2023/10/29 12:04:10;;;;;;;;;;;;;;;13.09;91.19;99240.22;5023982;28;1218;-76
2023/10/29 12:06:38;;;;;;;;;;;;;;;13.20;91.09;99252.00;5006134;28;1721;-76
2023/10/29 12:09:13;;;;;;;;;;;;;;;13.28;89.85;99260.53;5021827;28;1237;-77
2023/10/29 12:11:38;;;;;;;;;;;;;;;13.31;88.56;99253.38;5008040;28;1356;-75
2023/10/29 12:14:03;;;;;;;;;;;;;;;13.28;89.05;99244.91;5025368;28;2012;-75
2023/10/29 12:16:30;;;;;;;;;;;;;;;13.28;89.02;99255.31;5019240;28;1300;-75
2023/10/29 12:18:56;;;;;;;;;;;;;;;13.28;89.18;99270.94;5022322;28;1218;-75
2023/10/29 12:21:21;;;;;;;;;;;;;;;13.26;89.68;99293.75;5020757;28;1480;-75
2023/10/29 12:23:46;;;;;;;;;;;;;;;13.28;89.99;99299.59;5019394;28;1329;-76
2023/10/29 12:26:13;;;;;;;;;;;;;;;13.35;89.77;99293.66;5005908;28;1412;-76
2023/10/29 12:28:38;;;;;;;;;;;;;;;13.38;89.18;99307.13;5022286;28;1352;-75
2023/10/29 12:31:03;;;;;;;;;;;;;;;13.41;88.88;99293.75;5023858;28;1193;-76
2023/10/29 12:33:33;;;;;;;;;;;;;;;13.37;87.73;99283.88;5022238;28;1963;-75
2023/10/29 12:36:02;;;;;;;;;;;;;;;13.39;88.10;99289.72;5010802;28;1415;-75
2023/10/29 12:38:28;;;;;;;;;;;;;;;13.33;88.62;99278.22;5024119;28;1242;-75
2023/10/29 12:41:06;;;;;;;;;;;;;;;13.39;89.05;99271.47;5022308;28;1075;-75
2023/10/29 12:43:42;;;;;;;;;;;;;;;13.44;88.67;99266.53;5022045;28;946;-76